sensor_id;sensor_type;location;lat;lon;timestamp;P1;durP1;ratioP1;P2;durP2;ratioP2
50309;SDS011;36207;51.850;21.698;2022-09-09T00:00:06;13.50;;;7.80;;
50309;SDS011;36207;51.850;21.698;2022-09-09T00:03:17;12.20;;;7.90;;
50309;SDS011;36207;51.850;21.698;2022-09-09T00:08:22;17.10;;;8.70;;
50309;SDS011;36207;51.850;21.698;2022-09-09T00:10:59;15.30;;;9.00;;
50309;SDS011;36207;51.850;21.698;2022-09-09T00:13:36;12.80;;;8.00;;
50309;SDS011;36207;51.850;21.698;2022-09-09T00:16:19;16.20;;;9.40;;
50309;SDS011;36207;51.850;21.698;2022-09-09T00:21:30;16.40;;;9.40;;
50309;SDS011;36207;51.850;21.698;2022-09-09T00:24:11;17.60;;;9.90;;
50309;SDS011;36207;51.850;21.698;2022-09-09T00:26:52;18.90;;;9.90;;
50309;SDS011;36207;51.850;21.698;2022-09-09T00:32:11;15.90;;;9.60;;
50309;SDS011;36207;51.850;21.698;2022-09-09T00:34:46;17.00;;;10.00;;
50309;SDS011;36207;51.850;21.698;2022-09-09T00:37:31;18.60;;;9.70;;
50309;SDS011;36207;51.850;21.698;2022-09-09T00:40:02;16.00;;;9.30;;
50309;SDS011;36207;51.850;21.698;2022-09-09T00:42:44;16.20;;;9.20;;
50309;SDS011;36207;51.850;21.698;2022-09-09T00:50:22;16.00;;;10.00;;
50309;SDS011;36207;51.850;21.698;2022-09-09T00:55:48;19.20;;;9.70;;
50309;SDS011;36207;51.850;21.698;2022-09-09T00:58:21;20.10;;;9.80;;
50309;SDS011;36207;51.850;21.698;2022-09-09T01:00:52;18.00;;;10.00;;
50309;SDS011;36207;51.850;21.698;2022-09-09T01:03:37;16.70;;;9.90;;
50309;SDS011;36207;51.850;21.698;2022-09-09T01:06:31;18.10;;;10.10;;
50309;SDS011;36207;51.850;21.698;2022-09-09T01:09:08;17.10;;;9.40;;
50309;SDS011;36207;51.850;21.698;2022-09-09T01:11:43;17.80;;;10.40;;
50309;SDS011;36207;51.850;21.698;2022-09-09T01:16:58;19.40;;;10.60;;
50309;SDS011;36207;51.850;21.698;2022-09-09T01:20:13;18.20;;;10.10;;
50309;SDS011;36207;51.850;21.698;2022-09-09T01:22:36;19.40;;;10.10;;
50309;SDS011;36207;51.850;21.698;2022-09-09T01:28:10;19.70;;;10.70;;
50309;SDS011;36207;51.850;21.698;2022-09-09T01:30:47;17.00;;;10.20;;
50309;SDS011;36207;51.850;21.698;2022-09-09T01:33:15;19.80;;;10.80;;
50309;SDS011;36207;51.850;21.698;2022-09-09T01:35:45;16.30;;;10.30;;
50309;SDS011;36207;51.850;21.698;2022-09-09T01:38:21;22.10;;;10.60;;
50309;SDS011;36207;51.850;21.698;2022-09-09T01:40:49;20.00;;;10.80;;
50309;SDS011;36207;51.850;21.698;2022-09-09T01:43:18;17.90;;;10.90;;
50309;SDS011;36207;51.850;21.698;2022-09-09T01:45:46;18.90;;;10.60;;
50309;SDS011;36207;51.850;21.698;2022-09-09T01:48:16;19.80;;;10.50;;
50309;SDS011;36207;51.850;21.698;2022-09-09T01:50:44;17.60;;;10.80;;
50309;SDS011;36207;51.850;21.698;2022-09-09T01:53:10;20.60;;;11.30;;
50309;SDS011;36207;51.850;21.698;2022-09-09T01:55:39;19.10;;;10.70;;
50309;SDS011;36207;51.850;21.698;2022-09-09T02:00:33;17.00;;;10.50;;
50309;SDS011;36207;51.850;21.698;2022-09-09T02:03:08;20.00;;;11.20;;
50309;SDS011;36207;51.850;21.698;2022-09-09T02:05:47;19.50;;;11.50;;
50309;SDS011;36207;51.850;21.698;2022-09-09T02:08:23;17.90;;;10.60;;
50309;SDS011;36207;51.850;21.698;2022-09-09T02:11:14;18.10;;;10.90;;
50309;SDS011;36207;51.850;21.698;2022-09-09T02:13:44;16.80;;;10.70;;
50309;SDS011;36207;51.850;21.698;2022-09-09T02:16:13;19.00;;;11.00;;
50309;SDS011;36207;51.850;21.698;2022-09-09T02:21:26;20.80;;;11.10;;
50309;SDS011;36207;51.850;21.698;2022-09-09T02:23:56;20.90;;;11.60;;
50309;SDS011;36207;51.850;21.698;2022-09-09T02:26:25;20.70;;;12.00;;
50309;SDS011;36207;51.850;21.698;2022-09-09T02:28:53;21.10;;;11.60;;
50309;SDS011;36207;51.850;21.698;2022-09-09T02:31:24;20.30;;;11.90;;
50309;SDS011;36207;51.850;21.698;2022-09-09T02:33:52;17.60;;;10.90;;
50309;SDS011;36207;51.850;21.698;2022-09-09T02:36:23;16.90;;;10.10;;
50309;SDS011;36207;51.850;21.698;2022-09-09T02:38:52;17.20;;;11.00;;
50309;SDS011;36207;51.850;21.698;2022-09-09T02:41:20;14.80;;;9.60;;
50309;SDS011;36207;51.850;21.698;2022-09-09T02:43:51;15.70;;;10.00;;
50309;SDS011;36207;51.850;21.698;2022-09-09T02:46:32;15.50;;;9.80;;
50309;SDS011;36207;51.850;21.698;2022-09-09T02:54:29;15.40;;;9.60;;
50309;SDS011;36207;51.850;21.698;2022-09-09T02:57:05;15.60;;;9.70;;
50309;SDS011;36207;51.850;21.698;2022-09-09T02:59:36;14.70;;;9.30;;
50309;SDS011;36207;51.850;21.698;2022-09-09T03:02:03;16.30;;;10.20;;
50309;SDS011;36207;51.850;21.698;2022-09-09T03:04:30;15.60;;;9.80;;
50309;SDS011;36207;51.850;21.698;2022-09-09T03:06:57;16.20;;;9.10;;
50309;SDS011;36207;51.850;21.698;2022-09-09T03:09:24;16.30;;;9.50;;
50309;SDS011;36207;51.850;21.698;2022-09-09T03:11:51;14.70;;;9.30;;
50309;SDS011;36207;51.850;21.698;2022-09-09T03:14:18;13.60;;;9.10;;
50309;SDS011;36207;51.850;21.698;2022-09-09T03:16:47;13.10;;;8.90;;
50309;SDS011;36207;51.850;21.698;2022-09-09T03:19:16;13.90;;;9.00;;
50309;SDS011;36207;51.850;21.698;2022-09-09T03:21:42;14.70;;;8.80;;
50309;SDS011;36207;51.850;21.698;2022-09-09T03:24:08;13.00;;;8.30;;
50309;SDS011;36207;51.850;21.698;2022-09-09T03:26:35;13.90;;;8.20;;
50309;SDS011;36207;51.850;21.698;2022-09-09T03:29:01;12.60;;;8.50;;
50309;SDS011;36207;51.850;21.698;2022-09-09T03:31:27;14.00;;;9.30;;
50309;SDS011;36207;51.850;21.698;2022-09-09T03:33:56;13.60;;;8.90;;
50309;SDS011;36207;51.850;21.698;2022-09-09T03:36:24;13.00;;;8.20;;
50309;SDS011;36207;51.850;21.698;2022-09-09T03:38:52;12.60;;;8.90;;
50309;SDS011;36207;51.850;21.698;2022-09-09T03:41:20;14.60;;;9.50;;
50309;SDS011;36207;51.850;21.698;2022-09-09T03:43:52;12.20;;;8.30;;
50309;SDS011;36207;51.850;21.698;2022-09-09T03:46:20;14.80;;;9.40;;
50309;SDS011;36207;51.850;21.698;2022-09-09T03:48:47;14.80;;;9.00;;
50309;SDS011;36207;51.850;21.698;2022-09-09T03:51:15;13.90;;;9.10;;
50309;SDS011;36207;51.850;21.698;2022-09-09T03:53:41;13.90;;;9.00;;
50309;SDS011;36207;51.850;21.698;2022-09-09T03:56:08;12.90;;;8.70;;
50309;SDS011;36207;51.850;21.698;2022-09-09T03:58:35;14.00;;;8.90;;
50309;SDS011;36207;51.850;21.698;2022-09-09T04:01:04;17.80;;;8.80;;
50309;SDS011;36207;51.850;21.698;2022-09-09T04:03:36;13.90;;;8.50;;
50309;SDS011;36207;51.850;21.698;2022-09-09T04:06:03;13.70;;;9.10;;
50309;SDS011;36207;51.850;21.698;2022-09-09T04:08:31;13.90;;;9.50;;
50309;SDS011;36207;51.850;21.698;2022-09-09T04:10:58;14.30;;;9.40;;
50309;SDS011;36207;51.850;21.698;2022-09-09T04:13:27;13.80;;;8.70;;
50309;SDS011;36207;51.850;21.698;2022-09-09T04:15:54;14.00;;;8.80;;
50309;SDS011;36207;51.850;21.698;2022-09-09T04:18:22;17.10;;;10.00;;
50309;SDS011;36207;51.850;21.698;2022-09-09T04:20:50;16.50;;;10.10;;
50309;SDS011;36207;51.850;21.698;2022-09-09T04:23:20;17.70;;;9.90;;
50309;SDS011;36207;51.850;21.698;2022-09-09T04:25:50;13.80;;;9.60;;
50309;SDS011;36207;51.850;21.698;2022-09-09T04:28:18;14.70;;;9.40;;
50309;SDS011;36207;51.850;21.698;2022-09-09T04:30:46;17.20;;;9.50;;
50309;SDS011;36207;51.850;21.698;2022-09-09T04:33:12;16.80;;;9.80;;
50309;SDS011;36207;51.850;21.698;2022-09-09T04:35:46;14.70;;;9.60;;
50309;SDS011;36207;51.850;21.698;2022-09-09T04:38:14;14.90;;;9.60;;
50309;SDS011;36207;51.850;21.698;2022-09-09T04:40:46;14.20;;;9.20;;
50309;SDS011;36207;51.850;21.698;2022-09-09T04:43:13;13.20;;;9.40;;
50309;SDS011;36207;51.850;21.698;2022-09-09T04:45:40;14.50;;;9.50;;
50309;SDS011;36207;51.850;21.698;2022-09-09T04:48:07;16.60;;;9.70;;
50309;SDS011;36207;51.850;21.698;2022-09-09T04:50:35;14.00;;;9.10;;
50309;SDS011;36207;51.850;21.698;2022-09-09T04:53:04;16.40;;;9.30;;
50309;SDS011;36207;51.850;21.698;2022-09-09T04:55:31;16.20;;;9.20;;
50309;SDS011;36207;51.850;21.698;2022-09-09T04:58:07;14.70;;;9.00;;
50309;SDS011;36207;51.850;21.698;2022-09-09T05:00:34;16.30;;;8.90;;
50309;SDS011;36207;51.850;21.698;2022-09-09T05:03:03;15.00;;;9.60;;
50309;SDS011;36207;51.850;21.698;2022-09-09T05:05:31;14.50;;;8.70;;
50309;SDS011;36207;51.850;21.698;2022-09-09T05:08:02;12.70;;;8.50;;
50309;SDS011;36207;51.850;21.698;2022-09-09T05:10:36;15.30;;;8.60;;
50309;SDS011;36207;51.850;21.698;2022-09-09T05:13:04;13.40;;;9.20;;
50309;SDS011;36207;51.850;21.698;2022-09-09T05:15:30;12.90;;;8.30;;
50309;SDS011;36207;51.850;21.698;2022-09-09T05:18:00;11.90;;;8.20;;
50309;SDS011;36207;51.850;21.698;2022-09-09T05:20:28;12.90;;;8.10;;
50309;SDS011;36207;51.850;21.698;2022-09-09T05:22:54;14.10;;;8.60;;
50309;SDS011;36207;51.850;21.698;2022-09-09T05:25:22;13.10;;;8.20;;
50309;SDS011;36207;51.850;21.698;2022-09-09T05:27:51;13.90;;;8.50;;
50309;SDS011;36207;51.850;21.698;2022-09-09T05:30:20;14.00;;;8.30;;
50309;SDS011;36207;51.850;21.698;2022-09-09T05:32:47;14.10;;;7.90;;
50309;SDS011;36207;51.850;21.698;2022-09-09T05:35:14;11.70;;;7.90;;
50309;SDS011;36207;51.850;21.698;2022-09-09T05:37:41;12.10;;;8.20;;
50309;SDS011;36207;51.850;21.698;2022-09-09T05:40:07;11.40;;;8.10;;
50309;SDS011;36207;51.850;21.698;2022-09-09T05:42:33;15.00;;;8.80;;
50309;SDS011;36207;51.850;21.698;2022-09-09T05:45:00;14.50;;;8.20;;
50309;SDS011;36207;51.850;21.698;2022-09-09T05:47:26;13.90;;;8.60;;
50309;SDS011;36207;51.850;21.698;2022-09-09T05:49:53;13.50;;;8.40;;
50309;SDS011;36207;51.850;21.698;2022-09-09T05:52:20;14.40;;;8.90;;
50309;SDS011;36207;51.850;21.698;2022-09-09T05:54:47;14.90;;;8.40;;
50309;SDS011;36207;51.850;21.698;2022-09-09T05:57:13;14.60;;;8.90;;
50309;SDS011;36207;51.850;21.698;2022-09-09T05:59:39;14.60;;;8.90;;
50309;SDS011;36207;51.850;21.698;2022-09-09T06:02:05;14.10;;;8.90;;
50309;SDS011;36207;51.850;21.698;2022-09-09T06:04:31;15.50;;;9.00;;
50309;SDS011;36207;51.850;21.698;2022-09-09T06:06:57;14.60;;;9.30;;
50309;SDS011;36207;51.850;21.698;2022-09-09T06:09:24;14.20;;;9.20;;
50309;SDS011;36207;51.850;21.698;2022-09-09T06:11:50;13.80;;;8.40;;
50309;SDS011;36207;51.850;21.698;2022-09-09T06:14:16;13.70;;;8.70;;
50309;SDS011;36207;51.850;21.698;2022-09-09T06:16:43;15.40;;;9.90;;
50309;SDS011;36207;51.850;21.698;2022-09-09T06:19:10;13.20;;;9.10;;
50309;SDS011;36207;51.850;21.698;2022-09-09T06:21:38;13.60;;;9.20;;
50309;SDS011;36207;51.850;21.698;2022-09-09T06:24:05;13.50;;;8.70;;
50309;SDS011;36207;51.850;21.698;2022-09-09T06:26:39;12.10;;;8.50;;
50309;SDS011;36207;51.850;21.698;2022-09-09T06:29:07;14.80;;;8.80;;
50309;SDS011;36207;51.850;21.698;2022-09-09T06:31:34;14.40;;;10.30;;
50309;SDS011;36207;51.850;21.698;2022-09-09T06:34:03;17.30;;;11.60;;
50309;SDS011;36207;51.850;21.698;2022-09-09T06:36:32;14.00;;;9.20;;
50309;SDS011;36207;51.850;21.698;2022-09-09T06:39:00;13.00;;;8.50;;
50309;SDS011;36207;51.850;21.698;2022-09-09T06:41:28;14.30;;;9.10;;
50309;SDS011;36207;51.850;21.698;2022-09-09T06:43:57;13.00;;;8.70;;
50309;SDS011;36207;51.850;21.698;2022-09-09T06:46:24;11.80;;;7.70;;
50309;SDS011;36207;51.850;21.698;2022-09-09T06:48:56;10.80;;;7.80;;
50309;SDS011;36207;51.850;21.698;2022-09-09T06:51:25;13.10;;;8.80;;
50309;SDS011;36207;51.850;21.698;2022-09-09T06:53:56;14.10;;;9.30;;
50309;SDS011;36207;51.850;21.698;2022-09-09T06:56:28;15.50;;;9.80;;
50309;SDS011;36207;51.850;21.698;2022-09-09T06:58:58;13.70;;;8.40;;
50309;SDS011;36207;51.850;21.698;2022-09-09T07:01:30;11.20;;;7.90;;
50309;SDS011;36207;51.850;21.698;2022-09-09T07:04:00;11.80;;;7.70;;
50309;SDS011;36207;51.850;21.698;2022-09-09T07:06:28;12.60;;;7.50;;
50309;SDS011;36207;51.850;21.698;2022-09-09T07:09:00;13.10;;;7.90;;
50309;SDS011;36207;51.850;21.698;2022-09-09T07:11:30;12.00;;;7.60;;
50309;SDS011;36207;51.850;21.698;2022-09-09T07:13:59;12.90;;;8.10;;
50309;SDS011;36207;51.850;21.698;2022-09-09T07:16:26;10.50;;;7.60;;
50309;SDS011;36207;51.850;21.698;2022-09-09T07:18:53;10.50;;;7.40;;
50309;SDS011;36207;51.850;21.698;2022-09-09T07:21:26;11.90;;;7.80;;
50309;SDS011;36207;51.850;21.698;2022-09-09T07:23:54;12.40;;;8.20;;
50309;SDS011;36207;51.850;21.698;2022-09-09T07:26:21;12.80;;;8.60;;
50309;SDS011;36207;51.850;21.698;2022-09-09T07:28:51;15.60;;;10.00;;
50309;SDS011;36207;51.850;21.698;2022-09-09T07:31:19;15.50;;;11.30;;
50309;SDS011;36207;51.850;21.698;2022-09-09T07:33:50;14.90;;;10.80;;
50309;SDS011;36207;51.850;21.698;2022-09-09T07:36:20;14.60;;;9.70;;
50309;SDS011;36207;51.850;21.698;2022-09-09T07:38:51;14.40;;;9.90;;
50309;SDS011;36207;51.850;21.698;2022-09-09T07:41:29;13.60;;;10.00;;
50309;SDS011;36207;51.850;21.698;2022-09-09T07:43:56;13.30;;;9.40;;
50309;SDS011;36207;51.850;21.698;2022-09-09T07:46:23;12.70;;;9.50;;
50309;SDS011;36207;51.850;21.698;2022-09-09T07:48:52;11.70;;;8.50;;
50309;SDS011;36207;51.850;21.698;2022-09-09T07:51:25;13.50;;;9.20;;
50309;SDS011;36207;51.850;21.698;2022-09-09T07:53:57;12.50;;;8.80;;
50309;SDS011;36207;51.850;21.698;2022-09-09T07:56:25;13.80;;;9.30;;
50309;SDS011;36207;51.850;21.698;2022-09-09T07:58:54;16.30;;;9.20;;
50309;SDS011;36207;51.850;21.698;2022-09-09T08:01:26;15.20;;;9.10;;
50309;SDS011;36207;51.850;21.698;2022-09-09T08:06:25;15.00;;;9.10;;
50309;SDS011;36207;51.850;21.698;2022-09-09T08:08:53;15.00;;;9.80;;
50309;SDS011;36207;51.850;21.698;2022-09-09T08:11:21;16.50;;;9.80;;
50309;SDS011;36207;51.850;21.698;2022-09-09T08:13:49;14.60;;;9.80;;
50309;SDS011;36207;51.850;21.698;2022-09-09T08:16:18;14.30;;;10.10;;
50309;SDS011;36207;51.850;21.698;2022-09-09T08:18:53;14.20;;;10.30;;
50309;SDS011;36207;51.850;21.698;2022-09-09T08:21:26;14.70;;;9.70;;
50309;SDS011;36207;51.850;21.698;2022-09-09T08:23:54;15.10;;;9.80;;
50309;SDS011;36207;51.850;21.698;2022-09-09T08:26:22;15.80;;;10.30;;
50309;SDS011;36207;51.850;21.698;2022-09-09T08:28:54;15.20;;;10.40;;
50309;SDS011;36207;51.850;21.698;2022-09-09T08:31:27;15.70;;;10.30;;
50309;SDS011;36207;51.850;21.698;2022-09-09T08:33:59;14.70;;;10.40;;
50309;SDS011;36207;51.850;21.698;2022-09-09T08:36:28;14.80;;;10.50;;
50309;SDS011;36207;51.850;21.698;2022-09-09T08:38:57;15.00;;;10.30;;
50309;SDS011;36207;51.850;21.698;2022-09-09T08:52:48;13.80;;;9.90;;
50309;SDS011;36207;51.850;21.698;2022-09-09T08:57:41;17.70;;;10.10;;
50309;SDS011;36207;51.850;21.698;2022-09-09T09:00:09;18.20;;;10.80;;
50309;SDS011;36207;51.850;21.698;2022-09-09T09:02:42;17.20;;;10.90;;
50309;SDS011;36207;51.850;21.698;2022-09-09T09:05:49;19.50;;;10.50;;
50309;SDS011;36207;51.850;21.698;2022-09-09T09:11:17;67.10;;;19.20;;
50309;SDS011;36207;51.850;21.698;2022-09-09T09:13:45;20.00;;;11.90;;
50309;SDS011;36207;51.850;21.698;2022-09-09T09:19:00;19.50;;;11.00;;
50309;SDS011;36207;51.850;21.698;2022-09-09T09:21:39;15.00;;;10.60;;
50309;SDS011;36207;51.850;21.698;2022-09-09T09:24:15;15.60;;;10.80;;
50309;SDS011;36207;51.850;21.698;2022-09-09T09:26:48;16.20;;;10.20;;
50309;SDS011;36207;51.850;21.698;2022-09-09T09:29:15;15.80;;;10.60;;
50309;SDS011;36207;51.850;21.698;2022-09-09T09:31:47;15.30;;;10.40;;
50309;SDS011;36207;51.850;21.698;2022-09-09T09:34:17;15.70;;;11.00;;
50309;SDS011;36207;51.850;21.698;2022-09-09T09:36:45;15.60;;;10.50;;
50309;SDS011;36207;51.850;21.698;2022-09-09T09:39:22;15.30;;;10.30;;
50309;SDS011;36207;51.850;21.698;2022-09-09T09:41:50;17.60;;;10.30;;
50309;SDS011;36207;51.850;21.698;2022-09-09T09:44:30;16.40;;;10.30;;
50309;SDS011;36207;51.850;21.698;2022-09-09T09:47:14;15.00;;;10.50;;
50309;SDS011;36207;51.850;21.698;2022-09-09T09:49:56;17.60;;;10.40;;
50309;SDS011;36207;51.850;21.698;2022-09-09T09:52:31;14.90;;;10.10;;
50309;SDS011;36207;51.850;21.698;2022-09-09T09:55:02;15.60;;;10.70;;
50309;SDS011;36207;51.850;21.698;2022-09-09T09:57:33;15.50;;;10.50;;
50309;SDS011;36207;51.850;21.698;2022-09-09T10:00:04;16.70;;;10.20;;
50309;SDS011;36207;51.850;21.698;2022-09-09T10:02:49;15.00;;;10.00;;
50309;SDS011;36207;51.850;21.698;2022-09-09T10:05:19;13.60;;;9.60;;
50309;SDS011;36207;51.850;21.698;2022-09-09T10:08:02;15.20;;;10.20;;
50309;SDS011;36207;51.850;21.698;2022-09-09T10:11:14;16.50;;;10.10;;
50309;SDS011;36207;51.850;21.698;2022-09-09T10:13:18;14.90;;;9.80;;
50309;SDS011;36207;51.850;21.698;2022-09-09T10:18:59;16.00;;;10.10;;
50309;SDS011;36207;51.850;21.698;2022-09-09T10:21:39;16.40;;;11.10;;
50309;SDS011;36207;51.850;21.698;2022-09-09T10:27:22;16.10;;;10.80;;
50309;SDS011;36207;51.850;21.698;2022-09-09T10:32:51;17.00;;;10.70;;
50309;SDS011;36207;51.850;21.698;2022-09-09T10:35:25;17.20;;;11.20;;
50309;SDS011;36207;51.850;21.698;2022-09-09T10:38:12;17.90;;;11.00;;
50309;SDS011;36207;51.850;21.698;2022-09-09T10:56:54;17.10;;;11.30;;
50309;SDS011;36207;51.850;21.698;2022-09-09T10:59:26;18.00;;;11.40;;
50309;SDS011;36207;51.850;21.698;2022-09-09T11:02:16;20.50;;;11.70;;
50309;SDS011;36207;51.850;21.698;2022-09-09T11:04:53;19.30;;;12.50;;
50309;SDS011;36207;51.850;21.698;2022-09-09T11:07:29;21.20;;;12.40;;
50309;SDS011;36207;51.850;21.698;2022-09-09T11:10:21;17.60;;;11.60;;
50309;SDS011;36207;51.850;21.698;2022-09-09T11:13:03;22.10;;;12.80;;
50309;SDS011;36207;51.850;21.698;2022-09-09T11:15:35;20.60;;;12.30;;
50309;SDS011;36207;51.850;21.698;2022-09-09T11:18:08;20.40;;;12.70;;
50309;SDS011;36207;51.850;21.698;2022-09-09T11:20:39;17.50;;;12.10;;
50309;SDS011;36207;51.850;21.698;2022-09-09T11:24:09;19.80;;;12.20;;
50309;SDS011;36207;51.850;21.698;2022-09-09T11:26:06;21.30;;;13.00;;
50309;SDS011;36207;51.850;21.698;2022-09-09T11:42:15;22.60;;;13.40;;
50309;SDS011;36207;51.850;21.698;2022-09-09T11:44:46;22.60;;;13.70;;
50309;SDS011;36207;51.850;21.698;2022-09-09T11:47:26;23.80;;;13.70;;
50309;SDS011;36207;51.850;21.698;2022-09-09T11:52:42;26.00;;;14.30;;
50309;SDS011;36207;51.850;21.698;2022-09-09T11:55:23;24.40;;;14.40;;
50309;SDS011;36207;51.850;21.698;2022-09-09T11:57:59;20.20;;;13.50;;
50309;SDS011;36207;51.850;21.698;2022-09-09T12:00:40;22.10;;;13.20;;
50309;SDS011;36207;51.850;21.698;2022-09-09T12:06:18;21.20;;;13.80;;
50309;SDS011;36207;51.850;21.698;2022-09-09T12:08:55;20.10;;;13.10;;
50309;SDS011;36207;51.850;21.698;2022-09-09T12:11:30;21.70;;;13.50;;
50309;SDS011;36207;51.850;21.698;2022-09-09T12:13:57;25.30;;;13.70;;
50309;SDS011;36207;51.850;21.698;2022-09-09T12:16:33;23.10;;;15.10;;
50309;SDS011;36207;51.850;21.698;2022-09-09T12:19:12;22.50;;;13.80;;
50309;SDS011;36207;51.850;21.698;2022-09-09T12:24:47;23.40;;;14.70;;
50309;SDS011;36207;51.850;21.698;2022-09-09T12:27:21;21.70;;;14.10;;
50309;SDS011;36207;51.850;21.698;2022-09-09T12:30:04;22.80;;;13.80;;
50309;SDS011;36207;51.850;21.698;2022-09-09T12:32:34;23.60;;;13.50;;
50309;SDS011;36207;51.850;21.698;2022-09-09T12:35:03;25.60;;;14.20;;
50309;SDS011;36207;51.850;21.698;2022-09-09T12:37:37;21.70;;;14.30;;
50309;SDS011;36207;51.850;21.698;2022-09-09T12:40:23;24.70;;;15.40;;
50309;SDS011;36207;51.850;21.698;2022-09-09T12:42:50;20.50;;;13.60;;
50309;SDS011;36207;51.850;21.698;2022-09-09T12:45:24;21.90;;;13.50;;
50309;SDS011;36207;51.850;21.698;2022-09-09T12:50:36;23.90;;;14.20;;
50309;SDS011;36207;51.850;21.698;2022-09-09T12:53:51;22.60;;;14.30;;
50309;SDS011;36207;51.850;21.698;2022-09-09T12:56:03;23.00;;;13.90;;
50309;SDS011;36207;51.850;21.698;2022-09-09T12:58:35;22.90;;;14.30;;
50309;SDS011;36207;51.850;21.698;2022-09-09T13:01:03;25.50;;;15.10;;
50309;SDS011;36207;51.850;21.698;2022-09-09T13:03:32;23.20;;;14.60;;
50309;SDS011;36207;51.850;21.698;2022-09-09T13:06:12;22.70;;;14.50;;
50309;SDS011;36207;51.850;21.698;2022-09-09T13:08:50;22.50;;;14.00;;
50309;SDS011;36207;51.850;21.698;2022-09-09T13:11:20;21.70;;;13.30;;
50309;SDS011;36207;51.850;21.698;2022-09-09T13:13:51;20.90;;;14.10;;
50309;SDS011;36207;51.850;21.698;2022-09-09T13:16:28;25.80;;;16.10;;
50309;SDS011;36207;51.850;21.698;2022-09-09T13:18:58;23.10;;;15.50;;
50309;SDS011;36207;51.850;21.698;2022-09-09T13:21:34;21.70;;;14.10;;
50309;SDS011;36207;51.850;21.698;2022-09-09T13:24:07;22.10;;;14.40;;
50309;SDS011;36207;51.850;21.698;2022-09-09T13:26:54;23.60;;;14.70;;
50309;SDS011;36207;51.850;21.698;2022-09-09T13:29:23;21.60;;;14.40;;
50309;SDS011;36207;51.850;21.698;2022-09-09T13:31:50;23.00;;;14.80;;
50309;SDS011;36207;51.850;21.698;2022-09-09T13:36:59;24.50;;;15.10;;
50309;SDS011;36207;51.850;21.698;2022-09-09T13:39:28;27.40;;;15.60;;
50309;SDS011;36207;51.850;21.698;2022-09-09T13:41:55;23.60;;;15.20;;
50309;SDS011;36207;51.850;21.698;2022-09-09T13:44:23;26.60;;;16.50;;
50309;SDS011;36207;51.850;21.698;2022-09-09T13:47:05;22.10;;;15.50;;
50309;SDS011;36207;51.850;21.698;2022-09-09T13:49:44;22.90;;;15.30;;
50309;SDS011;36207;51.850;21.698;2022-09-09T13:52:15;28.50;;;16.20;;
50309;SDS011;36207;51.850;21.698;2022-09-09T13:54:51;23.40;;;15.40;;
50309;SDS011;36207;51.850;21.698;2022-09-09T13:57:22;23.70;;;15.10;;
50309;SDS011;36207;51.850;21.698;2022-09-09T13:59:51;25.20;;;16.00;;
50309;SDS011;36207;51.850;21.698;2022-09-09T14:02:20;23.00;;;16.10;;
50309;SDS011;36207;51.850;21.698;2022-09-09T14:04:48;25.10;;;15.20;;
50309;SDS011;36207;51.850;21.698;2022-09-09T14:07:16;22.20;;;14.50;;
50309;SDS011;36207;51.850;21.698;2022-09-09T14:09:44;20.40;;;14.10;;
50309;SDS011;36207;51.850;21.698;2022-09-09T14:12:16;24.60;;;14.20;;
50309;SDS011;36207;51.850;21.698;2022-09-09T14:14:43;22.90;;;14.60;;
50309;SDS011;36207;51.850;21.698;2022-09-09T14:17:09;25.70;;;16.40;;
50309;SDS011;36207;51.850;21.698;2022-09-09T14:19:35;23.30;;;16.20;;
50309;SDS011;36207;51.850;21.698;2022-09-09T14:22:02;20.60;;;15.30;;
50309;SDS011;36207;51.850;21.698;2022-09-09T14:24:29;22.40;;;14.30;;
50309;SDS011;36207;51.850;21.698;2022-09-09T14:26:55;23.70;;;15.60;;
50309;SDS011;36207;51.850;21.698;2022-09-09T14:29:21;24.70;;;15.70;;
50309;SDS011;36207;51.850;21.698;2022-09-09T14:31:47;25.10;;;15.70;;
50309;SDS011;36207;51.850;21.698;2022-09-09T14:34:13;25.60;;;16.30;;
50309;SDS011;36207;51.850;21.698;2022-09-09T14:36:40;25.20;;;14.80;;
50309;SDS011;36207;51.850;21.698;2022-09-09T14:39:07;25.10;;;15.60;;
50309;SDS011;36207;51.850;21.698;2022-09-09T14:41:33;28.10;;;16.10;;
50309;SDS011;36207;51.850;21.698;2022-09-09T14:44:00;23.40;;;15.40;;
50309;SDS011;36207;51.850;21.698;2022-09-09T14:46:26;26.20;;;15.60;;
50309;SDS011;36207;51.850;21.698;2022-09-09T14:48:52;25.10;;;14.70;;
50309;SDS011;36207;51.850;21.698;2022-09-09T14:51:20;27.50;;;16.10;;
50309;SDS011;36207;51.850;21.698;2022-09-09T14:53:52;27.70;;;16.90;;
50309;SDS011;36207;51.850;21.698;2022-09-09T14:56:20;24.30;;;15.90;;
50309;SDS011;36207;51.850;21.698;2022-09-09T14:58:49;27.70;;;16.50;;
50309;SDS011;36207;51.850;21.698;2022-09-09T15:01:17;24.80;;;16.00;;
50309;SDS011;36207;51.850;21.698;2022-09-09T15:03:49;26.30;;;15.90;;
50309;SDS011;36207;51.850;21.698;2022-09-09T15:06:17;26.10;;;16.50;;
50309;SDS011;36207;51.850;21.698;2022-09-09T15:08:45;27.40;;;15.30;;
50309;SDS011;36207;51.850;21.698;2022-09-09T15:11:14;25.40;;;15.90;;
50309;SDS011;36207;51.850;21.698;2022-09-09T15:13:42;23.10;;;14.40;;
50309;SDS011;36207;51.850;21.698;2022-09-09T15:18:37;23.20;;;15.30;;
50309;SDS011;36207;51.850;21.698;2022-09-09T15:21:05;24.60;;;15.40;;
50309;SDS011;36207;51.850;21.698;2022-09-09T15:23:32;25.10;;;15.80;;
50309;SDS011;36207;51.850;21.698;2022-09-09T15:25:59;21.80;;;14.50;;
50309;SDS011;36207;51.850;21.698;2022-09-09T15:28:26;24.50;;;14.80;;
50309;SDS011;36207;51.850;21.698;2022-09-09T15:30:53;23.90;;;14.80;;
50309;SDS011;36207;51.850;21.698;2022-09-09T15:33:20;24.40;;;15.40;;
50309;SDS011;36207;51.850;21.698;2022-09-09T15:35:47;28.30;;;18.60;;
50309;SDS011;36207;51.850;21.698;2022-09-09T15:38:15;25.00;;;17.40;;
50309;SDS011;36207;51.850;21.698;2022-09-09T15:40:42;24.70;;;16.20;;
50309;SDS011;36207;51.850;21.698;2022-09-09T15:43:09;24.80;;;16.70;;
50309;SDS011;36207;51.850;21.698;2022-09-09T15:45:36;27.80;;;16.40;;
50309;SDS011;36207;51.850;21.698;2022-09-09T15:48:03;25.00;;;15.40;;
50309;SDS011;36207;51.850;21.698;2022-09-09T15:50:30;24.40;;;15.00;;
50309;SDS011;36207;51.850;21.698;2022-09-09T15:53:00;26.90;;;15.40;;
50309;SDS011;36207;51.850;21.698;2022-09-09T15:55:26;29.10;;;16.00;;
50309;SDS011;36207;51.850;21.698;2022-09-09T15:57:53;24.90;;;15.20;;
50309;SDS011;36207;51.850;21.698;2022-09-09T16:00:20;24.20;;;15.50;;
50309;SDS011;36207;51.850;21.698;2022-09-09T16:02:47;21.20;;;14.30;;
50309;SDS011;36207;51.850;21.698;2022-09-09T16:05:13;26.20;;;15.60;;
50309;SDS011;36207;51.850;21.698;2022-09-09T16:07:40;26.20;;;15.30;;
50309;SDS011;36207;51.850;21.698;2022-09-09T16:10:08;27.00;;;15.60;;
50309;SDS011;36207;51.850;21.698;2022-09-09T16:12:35;25.50;;;14.60;;
50309;SDS011;36207;51.850;21.698;2022-09-09T16:15:01;26.90;;;14.50;;
50309;SDS011;36207;51.850;21.698;2022-09-09T16:17:28;23.30;;;14.60;;
50309;SDS011;36207;51.850;21.698;2022-09-09T16:19:57;25.10;;;15.00;;
50309;SDS011;36207;51.850;21.698;2022-09-09T16:22:24;24.50;;;15.30;;
50309;SDS011;36207;51.850;21.698;2022-09-09T16:24:50;24.90;;;15.20;;